Portada
Imágenes satélite Pronóstico 15 díasClimaPredicción Marítima Ciclones Rayo AeropuertosFAQ Noticias Acerca
El tiempo : Europa África América del Norte América del Sur Asia Australia-Oceanía Otros
Idiomas Contacto

Chichén Itzá, México

latitud: 20-38-30N, longitud: 088-26-58W, altitud: 31 m


METAR: MMCT 222041Z 00000KT 8SM BKN015CB BKN080 28/26 A2973 RMK 8/320 RA ALQDS MSGTX MMMD
TAF: falta

Hora: 05:04 (10:04 UTC)

Observación

El informe se hizo hace 13 horas y 23 minutos, a las 20:41 UTC
Viento calma
Temperatura 28°C
Humedad 89%
Presión 1007 hPa
Visibilidad: 12.9 km
Cielo nuboso a una altura de 1500 ft, Cumulonimbus.
Cielo nuboso a una altura de 8000 ft

Cambiar las unidades
La información que se ofrece en estas páginas está sujeta a una cláusula de exención de responsabilidad
El tiempo : Europa África América del Norte América del Sur Asia Australia-Oceanía Otros
Imágenes satélite Pronóstico 15 díasClimaPredicción Marítima Ciclones Rayo AeropuertosFAQ Idiomas Contacto Noticias Acerca